< < Back
Terminal Aerodrome Forecast


Current Version              Previous Versions:   1  2  3  4  5  6  7  8  9  

Terminal Aerodrome Forecast

862
FTUS44 KBMX 272300
TAFMGM
TAF
KMGM 272320Z 2800/2824 24006KT P6SM SCT250
      TEMPO 2808/2812 00000KT 4SM BR BKN025
     FM281400 25005KT P6SM VCSH BKN025 BKN070
      TEMPO 2815/2818 4SM -SHRA BKN020
     FM281800 29012KT P6SM VCTS SCT030CB BKN070=



Latest METAR

257
SAUS80 KWBC 281600 RRA
MTRMGM
METAR KMGM 281553Z 27010KT 10SM SCT025 BKN065 32/24 A2998 RMK AO2 SLP148
T03220244


USA.gov is the U.S. government's official web portal to all federal, state and local government web resources and services.